createdAt,value
2017-04-23T00:00:59.199Z,10.15
2017-04-23T00:01:59.092Z,10.17
2017-04-23T00:02:59.271Z,10.05
2017-04-23T00:03:59.174Z,10.2
2017-04-23T00:04:59.134Z,10.13
2017-04-23T00:05:59.273Z,10.17
2017-04-23T00:06:59.162Z,10.12
2017-04-23T00:07:59.199Z,10.05
2017-04-23T00:08:59.194Z,10.2
2017-04-23T00:09:59.207Z,10.1
2017-04-23T00:10:59.248Z,10.09
2017-04-23T00:11:59.244Z,10.05
2017-04-23T00:12:59.270Z,10.09
2017-04-23T00:13:59.402Z,9.95
2017-04-23T00:14:59.410Z,9.94
2017-04-23T00:15:59.445Z,9.91
2017-04-23T00:16:59.315Z,10.05
2017-04-23T00:17:59.335Z,9.97
2017-04-23T00:18:59.349Z,10.02
2017-04-23T00:19:59.368Z,9.97
2017-04-23T00:20:59.386Z,10.04
2017-04-23T00:21:59.397Z,9.97
2017-04-23T00:22:59.410Z,9.99
2017-04-23T00:23:59.434Z,9.97
2017-04-23T00:24:59.446Z,9.97
2017-04-23T00:25:59.455Z,9.99
2017-04-23T00:26:59.479Z,9.94
2017-04-23T00:27:59.481Z,9.95
2017-04-23T00:28:59.194Z,9.95
2017-04-23T00:29:59.204Z,9.97
2017-04-23T00:30:59.223Z,9.98
2017-04-23T00:31:59.236Z,9.97
2017-04-23T00:32:59.565Z,9.95
2017-04-23T00:33:59.578Z,9.99
2017-04-23T00:34:59.592Z,9.98
2017-04-23T00:35:59.611Z,9.99
2017-04-23T00:36:59.631Z,9.92
2017-04-23T00:37:59.642Z,9.97
2017-04-23T00:38:59.766Z,9.92
2017-04-23T00:39:59.363Z,9.95
2017-04-23T00:40:59.784Z,9.89
2017-04-23T00:41:59.793Z,9.94
2017-04-23T00:42:59.802Z,10.02
2017-04-23T00:43:59.739Z,9.86
2017-04-23T00:44:59.871Z,9.95
2017-04-23T00:45:59.877Z,9.97
2017-04-23T00:46:59.886Z,9.92
2017-04-23T00:47:59.886Z,9.95
2017-04-23T00:48:59.919Z,9.97
2017-04-23T00:49:59.929Z,9.89
2017-04-23T00:50:59.937Z,9.91
2017-04-23T00:51:59.912Z,9.94
2017-04-23T00:52:59.923Z,9.87
2017-04-23T00:54:00.011Z,9.84
2017-04-23T00:55:00.022Z,9.79
2017-04-23T00:55:59.693Z,9.89
2017-04-23T00:56:59.301Z,9.87
2017-04-23T00:58:00.044Z,9.82
2017-04-23T00:59:00.058Z,9.79
2017-04-23T01:00:00.167Z,9.79
2017-04-23T01:01:00.179Z,9.82
2017-04-23T01:02:00.193Z,9.77
2017-04-23T01:03:00.193Z,9.8
2017-04-23T01:04:00.193Z,9.86
2017-04-23T01:05:00.201Z,9.83
2017-04-23T01:06:00.213Z,9.79
2017-04-23T01:07:00.241Z,9.84
2017-04-23T01:08:00.282Z,9.76
2017-04-23T01:09:00.299Z,9.73
2017-04-23T01:10:00.306Z,9.74
2017-04-23T01:11:00.308Z,9.69
2017-04-23T01:12:00.313Z,9.74
2017-04-23T01:13:00.011Z,9.8
2017-04-23T01:14:00.331Z,9.69
2017-04-23T01:15:00.345Z,9.74
2017-04-23T01:16:00.338Z,9.69
2017-04-23T01:17:00.327Z,9.77
2017-04-23T01:18:00.336Z,9.65
2017-04-23T01:19:00.347Z,9.72
2017-04-23T01:20:00.355Z,9.65
2017-04-23T01:21:00.390Z,9.66
2017-04-23T01:22:00.401Z,9.69
2017-04-23T01:23:00.334Z,9.65
2017-04-23T01:24:00.342Z,9.66
2017-04-23T01:25:00.375Z,9.72
2017-04-23T01:26:00.390Z,9.74
2017-04-23T01:27:00.397Z,9.65
2017-04-23T01:28:00.409Z,9.59
2017-04-23T01:29:00.540Z,9.68
2017-04-23T01:30:00.430Z,9.58
2017-04-23T01:31:00.434Z,9.64
2017-04-23T01:32:00.468Z,9.61
2017-04-23T01:33:00.465Z,9.73
2017-04-23T01:34:00.620Z,9.65
2017-04-23T01:35:00.190Z,9.69
2017-04-23T01:36:00.517Z,9.72
2017-04-23T01:37:00.653Z,9.73
2017-04-23T01:38:00.671Z,9.72
2017-04-23T01:39:00.558Z,9.64
2017-04-23T01:40:00.668Z,9.66
2017-04-23T01:41:00.698Z,9.74
2017-04-23T01:41:59.974Z,9.68
2017-04-23T01:43:00.715Z,9.73
2017-04-23T01:44:00.653Z,9.68
2017-04-23T01:45:00.346Z,9.64
2017-04-23T01:46:00.662Z,9.69
2017-04-23T01:47:00.800Z,9.72
2017-04-23T01:48:00.810Z,9.68
2017-04-23T01:49:00.819Z,9.64
2017-04-23T01:50:00.836Z,9.68
2017-04-23T01:51:00.826Z,9.68
2017-04-23T01:52:00.753Z,9.62
2017-04-23T01:53:00.808Z,9.64
2017-04-23T01:54:00.809Z,9.66
2017-04-23T01:55:00.933Z,9.64
2017-04-23T01:56:00.599Z,9.68
2017-04-23T01:57:00.515Z,9.69
2017-04-23T01:58:00.532Z,9.66
2017-04-23T01:59:00.875Z,9.74
2017-04-23T02:00:00.883Z,9.68
2017-04-23T02:01:00.889Z,9.69
2017-04-23T02:02:01.022Z,9.73
2017-04-23T02:03:01.053Z,9.66
2017-04-23T02:04:00.935Z,9.66
2017-04-23T02:05:01.147Z,9.66
2017-04-23T02:06:00.968Z,9.69
2017-04-23T02:07:00.982Z,9.69
2017-04-23T02:08:01.004Z,9.69
2017-04-23T02:09:01.015Z,9.65
2017-04-23T02:10:01.076Z,9.62
2017-04-23T02:11:01.037Z,9.68
2017-04-23T02:12:01.058Z,9.72
2017-04-23T02:13:01.070Z,9.69
2017-04-23T02:14:01.215Z,9.64
2017-04-23T02:15:01.282Z,9.68
2017-04-23T02:16:00.823Z,9.68
2017-04-23T02:17:01.129Z,9.68
2017-04-23T02:18:01.146Z,9.64
2017-04-23T02:19:01.155Z,9.66
2017-04-23T02:20:01.175Z,9.72
2017-04-23T02:21:01.193Z,9.68
2017-04-23T02:22:01.324Z,9.68
2017-04-23T02:23:01.340Z,9.65
2017-04-23T02:24:01.312Z,9.72
2017-04-23T02:25:01.243Z,9.66
2017-04-23T02:26:01.258Z,9.68
2017-04-23T02:27:01.370Z,9.72
2017-04-23T02:28:01.293Z,9.69
2017-04-23T02:29:01.304Z,9.58
2017-04-23T02:30:01.326Z,9.64
2017-04-23T02:31:01.339Z,9.73
2017-04-23T02:32:01.353Z,9.66
2017-04-23T02:33:01.364Z,9.56
2017-04-23T02:34:01.561Z,9.61
2017-04-23T02:35:01.395Z,9.58
2017-04-23T02:36:01.412Z,9.55
2017-04-23T02:37:01.541Z,9.59
2017-04-23T02:38:01.436Z,9.59
2017-04-23T02:39:01.453Z,9.59
2017-04-23T02:40:01.468Z,9.55
2017-04-23T02:41:01.480Z,9.54
2017-04-23T02:42:01.496Z,9.56
2017-04-23T02:43:01.703Z,9.51
2017-04-23T02:44:01.526Z,9.59
2017-04-23T02:45:01.539Z,9.47
2017-04-23T02:46:01.658Z,9.43
2017-04-23T02:47:01.668Z,9.46
2017-04-23T02:48:01.690Z,9.44
2017-04-23T02:49:01.698Z,9.44
2017-04-23T02:50:01.707Z,9.46
2017-04-23T02:51:01.715Z,9.44
2017-04-23T02:52:01.726Z,9.48
2017-04-23T02:53:01.659Z,9.4
2017-04-23T02:54:01.678Z,9.4
2017-04-23T02:55:01.687Z,9.37
2017-04-23T02:56:01.887Z,9.32
2017-04-23T02:57:01.405Z,9.41
2017-04-23T02:58:01.737Z,9.34
2017-04-23T02:59:01.752Z,9.43
2017-04-23T03:00:01.760Z,9.37
2017-04-23T03:01:01.776Z,9.37
2017-04-23T03:02:01.798Z,9.43
2017-04-23T03:03:01.815Z,9.37
2017-04-23T03:04:01.824Z,9.32
2017-04-23T03:05:01.838Z,9.37
2017-04-23T03:06:01.845Z,9.46
2017-04-23T03:07:01.884Z,9.39
2017-04-23T03:08:01.885Z,9.36
2017-04-23T03:09:01.897Z,9.39
2017-04-23T03:10:01.914Z,9.43
2017-04-23T03:11:01.925Z,9.36
2017-04-23T03:12:01.945Z,9.39
2017-04-23T03:13:01.956Z,9.4
2017-04-23T03:14:01.969Z,9.41
2017-04-23T03:15:01.987Z,9.43
2017-04-23T03:16:01.997Z,9.4
2017-04-23T03:17:02.011Z,9.4
2017-04-23T03:18:02.027Z,9.34
2017-04-23T03:19:02.050Z,9.34
2017-04-23T03:20:02.092Z,9.36
2017-04-23T03:21:02.076Z,9.44
2017-04-23T03:22:02.090Z,9.37
2017-04-23T03:23:02.098Z,9.44
2017-04-23T03:24:02.118Z,9.39
2017-04-23T03:25:02.143Z,9.36
2017-04-23T03:26:02.144Z,9.39
2017-04-23T03:27:02.159Z,9.39
2017-04-23T03:28:01.862Z,9.39
2017-04-23T03:29:02.205Z,9.44
2017-04-23T03:30:01.888Z,9.34
2017-04-23T03:31:02.215Z,9.41
2017-04-23T03:32:01.918Z,9.34
2017-04-23T03:33:01.620Z,9.43
2017-04-23T03:34:02.261Z,9.36
2017-04-23T03:35:02.278Z,9.37
2017-04-23T03:36:02.293Z,9.34
2017-04-23T03:37:02.305Z,9.37
2017-04-23T03:38:02.325Z,9.4
2017-04-23T03:39:02.344Z,9.34
2017-04-23T03:40:02.034Z,9.36
2017-04-23T03:41:02.364Z,9.32
2017-04-23T03:42:02.383Z,9.4
2017-04-23T03:43:02.389Z,9.31
2017-04-23T03:44:02.414Z,9.34
2017-04-23T03:45:02.426Z,9.4
2017-04-23T03:46:02.440Z,9.32
2017-04-23T03:47:02.459Z,9.37
2017-04-23T03:48:02.470Z,9.34
2017-04-23T03:49:02.598Z,9.37
2017-04-23T03:50:02.505Z,9.36
2017-04-23T03:51:02.200Z,9.37
2017-04-23T03:52:02.527Z,9.41
2017-04-23T03:53:02.229Z,9.41
2017-04-23T03:54:02.555Z,9.43
2017-04-23T03:55:02.566Z,9.37
2017-04-23T03:56:02.582Z,9.46
2017-04-23T03:57:02.596Z,9.48
2017-04-23T03:58:02.613Z,9.43
2017-04-23T03:59:02.626Z,9.47
2017-04-23T04:00:02.649Z,9.44
2017-04-23T04:01:02.340Z,9.41
2017-04-23T04:02:02.361Z,9.4
2017-04-23T04:03:02.687Z,9.39
2017-04-23T04:04:02.699Z,9.41
2017-04-23T04:05:02.706Z,9.46
2017-04-23T04:06:02.737Z,9.4
2017-04-23T04:07:02.950Z,9.4
2017-04-23T04:08:02.888Z,9.4
2017-04-23T04:09:02.770Z,9.4
2017-04-23T04:10:02.796Z,9.41
2017-04-23T04:11:02.808Z,9.32
2017-04-23T04:12:02.972Z,9.32
2017-04-23T04:13:02.832Z,9.34
2017-04-23T04:14:02.548Z,9.34
2017-04-23T04:15:02.548Z,9.37
2017-04-23T04:16:02.563Z,9.4
2017-04-23T04:17:02.887Z,9.34
2017-04-23T04:18:02.965Z,9.26
2017-04-23T04:19:02.726Z,9.32
2017-04-23T04:20:02.929Z,9.34
2017-04-23T04:21:02.674Z,9.22
2017-04-23T04:22:02.675Z,9.23
2017-04-23T04:23:02.981Z,9.31
2017-04-23T04:24:03.048Z,9.28
2017-04-23T04:25:03.004Z,9.36
2017-04-23T04:26:03.039Z,9.28
2017-04-23T04:27:02.723Z,9.26
2017-04-23T04:28:02.743Z,9.25
2017-04-23T04:29:03.066Z,9.31
2017-04-23T04:30:03.084Z,9.31
2017-04-23T04:31:03.090Z,9.37
2017-04-23T04:32:02.922Z,9.29
2017-04-23T04:33:03.123Z,9.34
2017-04-23T04:34:03.140Z,9.34
2017-04-23T04:35:03.160Z,9.32
2017-04-23T04:36:03.302Z,9.37
2017-04-23T04:37:03.192Z,9.37
2017-04-23T04:38:02.932Z,9.36
2017-04-23T04:39:03.342Z,9.44
2017-04-23T04:40:03.399Z,9.46
2017-04-23T04:41:03.240Z,9.37
2017-04-23T04:42:02.942Z,9.44
2017-04-23T04:43:03.267Z,9.44
2017-04-23T04:44:03.283Z,9.46
2017-04-23T04:45:03.298Z,9.43
2017-04-23T04:46:03.090Z,9.44
2017-04-23T04:47:03.329Z,9.47
2017-04-23T04:48:03.053Z,9.47
2017-04-23T04:49:03.358Z,9.51
2017-04-23T04:50:03.069Z,9.46
2017-04-23T04:51:03.395Z,9.48
2017-04-23T04:52:03.098Z,9.56
2017-04-23T04:53:03.432Z,9.46
2017-04-23T04:54:03.430Z,9.59
2017-04-23T04:55:03.445Z,9.59
2017-04-23T04:56:03.466Z,9.56
2017-04-23T04:57:03.470Z,9.59
2017-04-23T04:58:03.494Z,9.59
2017-04-23T04:59:03.504Z,9.56
2017-04-23T05:00:03.540Z,9.59
2017-04-23T05:01:03.533Z,9.59
2017-04-23T05:02:03.552Z,9.59
2017-04-23T05:03:03.556Z,9.56
2017-04-23T05:04:03.582Z,9.62
2017-04-23T05:05:03.588Z,9.58
2017-04-23T05:06:03.624Z,9.54
2017-04-23T05:07:03.632Z,9.55
2017-04-23T05:08:03.648Z,9.61
2017-04-23T05:09:03.647Z,9.55
2017-04-23T05:10:03.676Z,9.58
2017-04-23T05:11:03.695Z,9.62
2017-04-23T05:12:03.692Z,9.59
2017-04-23T05:13:03.394Z,9.58
2017-04-23T05:14:03.744Z,9.62
2017-04-23T05:15:03.849Z,9.61
2017-04-23T05:16:03.875Z,9.61
2017-04-23T05:17:03.856Z,9.72
2017-04-23T05:18:03.880Z,9.73
2017-04-23T05:19:03.810Z,9.68
2017-04-23T05:20:03.812Z,9.68
2017-04-23T05:21:03.527Z,9.73
2017-04-23T05:22:03.845Z,9.66
2017-04-23T05:23:03.854Z,9.65
2017-04-23T05:24:03.875Z,9.73
2017-04-23T05:25:03.888Z,9.65
2017-04-23T05:26:03.893Z,9.66
2017-04-23T05:27:03.914Z,9.66
2017-04-23T05:28:03.930Z,9.66
2017-04-23T05:29:03.631Z,9.64
2017-04-23T05:30:03.662Z,9.73
2017-04-23T05:31:03.964Z,9.69
2017-04-23T05:32:03.983Z,9.66
2017-04-23T05:33:04.011Z,9.68
2017-04-23T05:34:04.015Z,9.66
2017-04-23T05:35:04.037Z,9.74
2017-04-23T05:36:04.038Z,9.68
2017-04-23T05:37:04.060Z,9.69
2017-04-23T05:38:04.084Z,9.69
2017-04-23T05:39:04.089Z,9.64
2017-04-23T05:40:04.103Z,9.84
2017-04-23T05:41:04.117Z,9.84
2017-04-23T05:42:04.142Z,9.69
2017-04-23T05:43:04.160Z,9.82
2017-04-23T05:44:04.167Z,9.66
2017-04-23T05:45:04.173Z,9.66
2017-04-23T05:46:04.188Z,9.69
2017-04-23T05:47:04.204Z,9.79
2017-04-23T05:48:04.220Z,9.82
2017-04-23T05:49:04.244Z,9.65
2017-04-23T05:50:04.252Z,9.64
2017-04-23T05:51:04.265Z,9.64
2017-04-23T05:52:04.277Z,9.79
2017-04-23T05:53:04.318Z,9.69
2017-04-23T05:54:04.308Z,9.69
2017-04-23T05:55:04.326Z,9.79
2017-04-23T05:56:04.030Z,9.76
2017-04-23T05:57:04.353Z,9.72
2017-04-23T05:58:04.370Z,9.83
2017-04-23T05:59:04.381Z,9.83
2017-04-23T06:00:04.401Z,9.62
2017-04-23T06:01:04.414Z,9.8
2017-04-23T06:02:04.431Z,9.84
2017-04-23T06:03:04.445Z,9.72
2017-04-23T06:04:04.459Z,9.76
2017-04-23T06:05:04.470Z,9.8
2017-04-23T06:06:04.489Z,9.76
2017-04-23T06:07:04.497Z,9.77
2017-04-23T06:08:04.528Z,9.83
2017-04-23T06:09:04.534Z,9.8
2017-04-23T06:10:04.551Z,9.89
2017-04-23T06:11:04.248Z,9.82
2017-04-23T06:12:04.574Z,9.84
2017-04-23T06:13:04.608Z,9.8
2017-04-23T06:14:04.614Z,9.8
2017-04-23T06:15:04.627Z,9.77
2017-04-23T06:16:04.631Z,9.86
2017-04-23T06:17:04.678Z,9.8
2017-04-23T06:18:04.418Z,9.8
2017-04-23T06:19:04.678Z,9.79
2017-04-23T06:20:04.700Z,9.95
2017-04-23T06:21:04.403Z,9.92
2017-04-23T06:22:04.723Z,9.92
2017-04-23T06:23:04.738Z,9.95
2017-04-23T06:24:04.756Z,9.92
2017-04-23T06:25:04.782Z,9.95
2017-04-23T06:26:04.470Z,9.98
2017-04-23T06:27:04.797Z,9.95
2017-04-23T06:28:04.815Z,10.02
2017-04-23T06:29:04.828Z,9.91
2017-04-23T06:30:04.852Z,9.95
2017-04-23T06:31:04.858Z,10.01
2017-04-23T06:32:04.876Z,10.05
2017-04-23T06:33:04.895Z,10.13
2017-04-23T06:34:04.902Z,10.07
2017-04-23T06:35:04.919Z,10.13
2017-04-23T06:36:04.929Z,10.12
2017-04-23T06:37:04.944Z,10.13
2017-04-23T06:38:04.960Z,10.19
2017-04-23T06:39:04.976Z,10.19
2017-04-23T06:40:04.989Z,10.17
2017-04-23T06:41:05.005Z,10.17
2017-04-23T06:42:04.822Z,10.17
2017-04-23T06:43:05.047Z,10.28
2017-04-23T06:44:05.052Z,10.26
2017-04-23T06:45:05.065Z,10.28
2017-04-23T06:46:04.784Z,10.31
2017-04-23T06:47:05.189Z,10.33
2017-04-23T06:48:05.113Z,10.23
2017-04-23T06:49:05.129Z,10.26
2017-04-23T06:50:05.153Z,10.37
2017-04-23T06:51:05.162Z,10.44
2017-04-23T06:52:05.184Z,10.42
2017-04-23T06:53:05.186Z,10.48
2017-04-23T06:54:05.203Z,10.54
2017-04-23T06:55:05.224Z,10.53
2017-04-23T06:56:04.950Z,10.57
2017-04-23T06:57:05.320Z,10.46
2017-04-23T06:58:05.260Z,10.53
2017-04-23T06:59:05.278Z,10.54
2017-04-23T07:00:05.311Z,10.56
2017-04-23T07:01:04.988Z,10.57
2017-04-23T07:02:05.319Z,10.57
2017-04-23T07:03:05.348Z,10.56
2017-04-23T07:04:05.352Z,10.59
2017-04-23T07:05:05.369Z,10.56
2017-04-23T07:06:05.401Z,10.6
2017-04-23T07:07:05.118Z,10.48
2017-04-23T07:08:05.426Z,10.53
2017-04-23T07:09:05.430Z,10.53
2017-04-23T07:10:05.649Z,10.44
2017-04-23T07:11:05.466Z,10.49
2017-04-23T07:12:05.484Z,10.59
2017-04-23T07:13:05.493Z,10.57
2017-04-23T07:14:05.514Z,10.56
2017-04-23T07:15:05.528Z,10.59
2017-04-23T07:16:05.347Z,10.56
2017-04-23T07:17:05.551Z,10.54
2017-04-23T07:18:05.376Z,10.53
2017-04-23T07:19:05.582Z,10.54
2017-04-23T07:20:05.643Z,10.54
2017-04-23T07:21:05.612Z,10.56
2017-04-23T07:22:05.761Z,10.57
2017-04-23T07:23:05.777Z,10.56
2017-04-23T07:24:05.737Z,10.54
2017-04-23T07:25:05.709Z,10.57
2017-04-23T07:26:05.690Z,10.48
2017-04-23T07:27:05.712Z,10.61
2017-04-23T07:28:05.865Z,10.57
2017-04-23T07:29:05.421Z,10.56
2017-04-23T07:30:05.613Z,10.48
2017-04-23T07:31:05.897Z,10.6
2017-04-23T07:32:05.788Z,10.57
2017-04-23T07:33:05.599Z,10.56
2017-04-23T07:34:05.935Z,10.57
2017-04-23T07:35:05.635Z,10.6
2017-04-23T07:36:05.870Z,10.61
2017-04-23T07:37:05.858Z,10.53
2017-04-23T07:38:05.930Z,10.56
2017-04-23T07:39:05.886Z,10.57
2017-04-23T07:40:05.589Z,10.63
2017-04-23T07:41:05.607Z,10.64
2017-04-23T07:42:05.640Z,10.67
2017-04-23T07:43:05.953Z,10.69
2017-04-23T07:44:05.685Z,10.61
2017-04-23T07:45:06.019Z,10.64
2017-04-23T07:46:06.099Z,10.61
2017-04-23T07:47:06.017Z,10.78
2017-04-23T07:48:06.106Z,10.75
2017-04-23T07:49:06.116Z,10.82
2017-04-23T07:50:06.124Z,10.75
2017-04-23T07:51:06.132Z,10.87
2017-04-23T07:52:06.218Z,10.78
2017-04-23T07:53:06.139Z,10.79
2017-04-23T07:54:06.148Z,10.81
2017-04-23T07:55:06.157Z,10.79
2017-04-23T07:56:06.167Z,10.81
2017-04-23T07:57:06.175Z,10.76
2017-04-23T07:58:06.294Z,10.76
2017-04-23T07:59:06.241Z,10.78
2017-04-23T08:00:06.251Z,10.81
2017-04-23T08:01:05.928Z,10.75
2017-04-23T08:02:06.259Z,10.86
2017-04-23T08:03:06.462Z,10.74
2017-04-23T08:04:06.294Z,10.72
2017-04-23T08:05:05.971Z,10.74
2017-04-23T08:06:06.134Z,10.9
2017-04-23T08:07:06.527Z,10.81
2017-04-23T08:08:06.429Z,10.78
2017-04-23T08:09:06.355Z,10.9
2017-04-23T08:10:06.364Z,10.94
2017-04-23T08:11:06.385Z,10.96
2017-04-23T08:12:06.406Z,11.04
2017-04-23T08:13:06.410Z,11.1
2017-04-23T08:14:06.426Z,11.11
2017-04-23T08:15:06.449Z,11.11
2017-04-23T08:16:06.468Z,11.22
2017-04-23T08:17:06.476Z,11.14
2017-04-23T08:18:06.493Z,11.19
2017-04-23T08:19:06.509Z,11.22
2017-04-23T08:20:06.519Z,11.22
2017-04-23T08:21:06.544Z,11.3
2017-04-23T08:22:06.680Z,11.23
2017-04-23T08:23:06.308Z,11.27
2017-04-23T08:24:06.588Z,11.32
2017-04-23T08:25:06.604Z,11.4
2017-04-23T08:26:06.619Z,11.37
2017-04-23T08:27:06.638Z,11.4
2017-04-23T08:28:06.355Z,11.37
2017-04-23T08:29:06.360Z,11.43
2017-04-23T08:30:06.679Z,11.33
2017-04-23T08:31:06.755Z,11.36
2017-04-23T08:32:06.714Z,11.41
2017-04-23T08:33:06.727Z,11.43
2017-04-23T08:34:06.753Z,11.35
2017-04-23T08:35:06.761Z,11.36
2017-04-23T08:36:07.157Z,11.32
2017-04-23T08:37:06.792Z,11.32
2017-04-23T08:38:06.804Z,11.3
2017-04-23T08:39:06.827Z,11.22
2017-04-23T08:40:06.837Z,11.26
2017-04-23T08:41:06.879Z,11.26
2017-04-23T08:42:07.012Z,11.25
2017-04-23T08:43:06.574Z,11.25
2017-04-23T08:44:07.032Z,11.32
2017-04-23T08:45:06.919Z,11.36
2017-04-23T08:46:07.059Z,11.36
2017-04-23T08:47:06.949Z,11.36
2017-04-23T08:48:06.970Z,11.36
2017-04-23T08:49:06.982Z,11.33
2017-04-23T08:50:06.998Z,11.35
2017-04-23T08:51:07.017Z,11.33
2017-04-23T08:52:07.057Z,11.23
2017-04-23T08:53:07.048Z,11.32
2017-04-23T08:54:07.060Z,11.19
2017-04-23T08:55:07.142Z,11.14
2017-04-23T08:56:07.096Z,11.19
2017-04-23T08:57:07.112Z,11.15
2017-04-23T08:58:07.134Z,11.14
2017-04-23T08:59:07.139Z,11.1
2017-04-23T09:00:07.165Z,11.07
2017-04-23T09:01:07.172Z,11.14
2017-04-23T09:02:07.196Z,11.14
2017-04-23T09:03:07.219Z,11.1
2017-04-23T09:04:07.229Z,11.1
2017-04-23T09:05:07.237Z,11.12
2017-04-23T09:06:07.248Z,11.14
2017-04-23T09:07:07.269Z,11.12
2017-04-23T09:08:07.284Z,11.15
2017-04-23T09:09:07.299Z,11.14
2017-04-23T09:10:07.324Z,11.17
2017-04-23T09:11:07.341Z,11.19
2017-04-23T09:12:07.352Z,11.25
2017-04-23T09:13:07.363Z,11.4
2017-04-23T09:14:07.379Z,11.37
2017-04-23T09:15:07.403Z,11.37
2017-04-23T09:16:07.433Z,11.48
2017-04-23T09:17:07.434Z,11.47
2017-04-23T09:18:07.135Z,11.55
2017-04-23T09:19:07.461Z,11.65
2017-04-23T09:20:07.485Z,11.69
2017-04-23T09:21:07.495Z,11.75
2017-04-23T09:22:07.515Z,11.73
2017-04-23T09:23:07.529Z,11.95
2017-04-23T09:24:07.236Z,11.99
2017-04-23T09:25:07.244Z,11.97
2017-04-23T09:26:07.261Z,12.1
2017-04-23T09:27:07.590Z,12.22
2017-04-23T09:28:07.292Z,12.24
2017-04-23T09:29:07.627Z,12.29
2017-04-23T09:30:07.645Z,12.4
2017-04-23T09:31:07.659Z,12.35
2017-04-23T09:32:07.674Z,12.43
2017-04-23T09:33:07.698Z,12.43
2017-04-23T09:34:07.709Z,12.6
2017-04-23T09:35:07.739Z,12.61
2017-04-23T09:36:07.739Z,12.61
2017-04-23T09:37:07.756Z,12.58
2017-04-23T09:38:07.784Z,12.76
2017-04-23T09:39:07.790Z,12.76
2017-04-23T09:40:07.814Z,12.76
2017-04-23T09:41:07.834Z,12.8
2017-04-23T09:42:07.834Z,12.79
2017-04-23T09:43:07.973Z,12.85
2017-04-23T09:44:07.996Z,12.85
2017-04-23T09:45:07.995Z,12.86
2017-04-23T09:46:08.003Z,12.93
2017-04-23T09:47:08.012Z,12.86
2017-04-23T09:48:08.154Z,12.86
2017-04-23T09:49:08.076Z,12.79
2017-04-23T09:50:07.864Z,12.76
2017-04-23T09:51:07.988Z,12.8
2017-04-23T09:52:07.378Z,12.8
2017-04-23T09:53:07.704Z,12.76
2017-04-23T09:54:08.036Z,12.79
2017-04-23T09:55:08.051Z,12.76
2017-04-23T09:56:08.068Z,12.85
2017-04-23T09:57:08.219Z,12.78
2017-04-23T09:58:08.107Z,12.79
2017-04-23T09:59:08.135Z,12.75
2017-04-23T10:00:08.141Z,12.8
2017-04-23T10:01:08.155Z,12.78
2017-04-23T10:02:08.176Z,12.78
2017-04-23T10:03:08.189Z,12.72
2017-04-23T10:04:08.206Z,12.76
2017-04-23T10:05:07.911Z,12.78
2017-04-23T10:06:08.242Z,12.7
2017-04-23T10:07:07.939Z,12.75
2017-04-23T10:08:08.270Z,12.78
2017-04-23T10:09:08.284Z,12.7
2017-04-23T10:10:08.306Z,12.76
2017-04-23T10:11:08.327Z,12.68
2017-04-23T10:12:07.716Z,12.72
2017-04-23T10:13:08.359Z,12.68
2017-04-23T10:14:08.375Z,12.62
2017-04-23T10:15:08.393Z,12.67
2017-04-23T10:16:08.706Z,12.65
2017-04-23T10:17:08.480Z,12.54
2017-04-23T10:18:08.489Z,12.46
2017-04-23T10:19:08.487Z,12.46
2017-04-23T10:20:08.495Z,12.46
2017-04-23T10:21:08.506Z,12.37
2017-04-23T10:22:08.513Z,12.42
2017-04-23T10:23:08.523Z,12.32
2017-04-23T10:24:08.545Z,12.25
2017-04-23T10:25:08.564Z,12.27
2017-04-23T10:26:08.579Z,12.35
2017-04-23T10:27:08.594Z,12.27
2017-04-23T10:28:08.302Z,12.37
2017-04-23T10:29:08.632Z,12.32
2017-04-23T10:30:08.652Z,12.37
2017-04-23T10:31:08.662Z,12.39
2017-04-23T10:32:08.369Z,12.45
2017-04-23T10:33:08.384Z,12.5
2017-04-23T10:34:08.415Z,12.55
2017-04-23T10:35:08.728Z,12.45
2017-04-23T10:36:08.746Z,12.46
2017-04-23T10:37:08.449Z,12.5
2017-04-23T10:38:08.986Z,12.49
2017-04-23T10:39:08.900Z,12.36
2017-04-23T10:40:09.048Z,12.43
2017-04-23T10:41:09.059Z,12.45
2017-04-23T10:42:09.047Z,12.37
2017-04-23T10:43:09.055Z,12.45
2017-04-23T10:44:08.758Z,12.42
2017-04-23T10:45:09.138Z,12.4
2017-04-23T10:46:09.089Z,12.42
2017-04-23T10:47:09.089Z,12.4
2017-04-23T10:48:08.783Z,12.42
2017-04-23T10:49:09.114Z,12.39
2017-04-23T10:50:08.989Z,12.4
2017-04-23T10:51:08.689Z,12.45
2017-04-23T10:52:09.025Z,12.35
2017-04-23T10:53:09.039Z,12.29
2017-04-23T10:54:09.058Z,12.37
2017-04-23T10:55:09.075Z,12.42
2017-04-23T10:56:09.095Z,12.32
2017-04-23T10:57:09.108Z,12.4
2017-04-23T10:58:09.141Z,12.32
2017-04-23T10:59:09.175Z,12.39
2017-04-23T11:00:09.163Z,12.45
2017-04-23T11:01:09.174Z,12.49
2017-04-23T11:02:09.193Z,12.47
2017-04-23T11:03:09.202Z,12.6
2017-04-23T11:04:09.227Z,12.62
2017-04-23T11:05:09.242Z,12.76
2017-04-23T11:06:09.257Z,12.83
2017-04-23T11:07:09.279Z,12.85
2017-04-23T11:08:09.292Z,12.94
2017-04-23T11:09:09.309Z,12.97
2017-04-23T11:10:09.330Z,12.95
2017-04-23T11:11:09.345Z,12.98
2017-04-23T11:12:09.545Z,13.08
2017-04-23T11:13:09.560Z,13.16
2017-04-23T11:14:09.558Z,13.15
2017-04-23T11:15:09.569Z,13.2
2017-04-23T11:16:09.208Z,13.27
2017-04-23T11:17:09.457Z,13.37
2017-04-23T11:18:09.465Z,13.42
2017-04-23T11:19:09.481Z,13.47
2017-04-23T11:20:09.500Z,13.56
2017-04-23T11:21:09.520Z,13.62
2017-04-23T11:22:09.220Z,13.71
2017-04-23T11:23:09.554Z,13.68
2017-04-23T11:24:09.572Z,13.77
2017-04-23T11:25:09.586Z,13.71
2017-04-23T11:26:09.292Z,13.75
2017-04-23T11:27:09.623Z,13.83
2017-04-23T11:28:09.641Z,13.79
2017-04-23T11:29:09.662Z,13.9
2017-04-23T11:30:09.681Z,13.86
2017-04-23T11:31:09.393Z,13.89
2017-04-23T11:32:09.717Z,13.97
2017-04-23T11:33:09.419Z,13.95
2017-04-23T11:34:09.753Z,14.03
2017-04-23T11:35:09.775Z,13.96
2017-04-23T11:36:09.469Z,13.96
2017-04-23T11:37:09.803Z,14
2017-04-23T11:38:09.846Z,13.96
2017-04-23T11:39:09.839Z,13.89
2017-04-23T11:40:09.548Z,13.89
2017-04-23T11:41:09.872Z,13.9
2017-04-23T11:42:09.916Z,13.78
2017-04-23T11:43:09.904Z,13.83
2017-04-23T11:44:09.923Z,13.7
2017-04-23T11:45:09.953Z,13.81
2017-04-23T11:46:09.960Z,13.81
2017-04-23T11:47:09.975Z,13.65
2017-04-23T11:48:10.128Z,13.78
2017-04-23T11:49:09.786Z,13.68
2017-04-23T11:50:10.094Z,13.77
2017-04-23T11:51:10.105Z,13.74
2017-04-23T11:52:10.063Z,13.81
2017-04-23T11:53:09.771Z,13.75
2017-04-23T11:54:10.103Z,13.85
2017-04-23T11:55:10.122Z,13.77
2017-04-23T11:56:09.823Z,13.83
2017-04-23T11:57:10.345Z,13.81
2017-04-23T11:58:10.354Z,13.75
2017-04-23T11:59:10.088Z,13.74
2017-04-23T12:00:09.928Z,13.68
2017-04-23T12:01:10.068Z,13.7
2017-04-23T12:02:10.394Z,13.65
2017-04-23T12:03:10.091Z,13.59
2017-04-23T12:04:10.095Z,13.57
2017-04-23T12:05:10.417Z,13.54
2017-04-23T12:06:10.291Z,13.52
2017-04-23T12:07:10.474Z,13.5
2017-04-23T12:08:10.473Z,13.47
2017-04-23T12:09:10.482Z,13.42
2017-04-23T12:10:10.490Z,13.42
2017-04-23T12:11:10.280Z,13.47
2017-04-23T12:12:10.197Z,13.53
2017-04-23T12:13:10.508Z,13.42
2017-04-23T12:14:10.241Z,13.5
2017-04-23T12:15:10.567Z,13.59
2017-04-23T12:16:10.676Z,13.65
2017-04-23T12:17:10.511Z,13.65
2017-04-23T12:18:10.220Z,13.7
2017-04-23T12:19:10.549Z,13.67
2017-04-23T12:20:10.250Z,13.68
2017-04-23T12:21:10.600Z,13.68
2017-04-23T12:22:10.607Z,13.63
2017-04-23T12:23:10.632Z,13.63
2017-04-23T12:24:10.634Z,13.68
2017-04-23T12:25:10.348Z,13.65
2017-04-23T12:26:10.418Z,13.63
2017-04-23T12:27:10.693Z,13.57
2017-04-23T12:28:10.712Z,13.53
2017-04-23T12:29:10.723Z,13.6
2017-04-23T12:30:10.430Z,13.6
2017-04-23T12:31:10.764Z,13.65
2017-04-23T12:32:10.466Z,13.68
2017-04-23T12:33:10.799Z,13.7
2017-04-23T12:34:10.521Z,13.67
2017-04-23T12:35:10.850Z,13.77
2017-04-23T12:36:10.864Z,13.74
2017-04-23T12:37:10.879Z,13.77
2017-04-23T12:38:10.964Z,13.83
2017-04-23T12:39:10.942Z,13.79
2017-04-23T12:40:10.993Z,13.9
2017-04-23T12:41:11.047Z,13.87
2017-04-23T12:42:10.679Z,13.85
2017-04-23T12:43:10.991Z,13.93
2017-04-23T12:44:11.032Z,13.87
2017-04-23T12:45:11.030Z,13.77
2017-04-23T12:46:11.104Z,13.81
2017-04-23T12:47:11.084Z,13.79
2017-04-23T12:48:11.148Z,13.85
2017-04-23T12:49:10.779Z,13.74
2017-04-23T12:50:10.820Z,13.78
2017-04-23T12:51:11.149Z,13.74
2017-04-23T12:52:11.262Z,13.65
2017-04-23T12:53:10.907Z,13.57
2017-04-23T12:54:11.388Z,13.57
2017-04-23T12:55:10.928Z,13.5
2017-04-23T12:56:11.309Z,13.47
2017-04-23T12:57:11.242Z,13.47
2017-04-23T12:58:11.287Z,13.42
2017-04-23T12:59:11.290Z,13.47
2017-04-23T13:00:11.306Z,13.37
2017-04-23T13:01:11.343Z,13.37
2017-04-23T13:02:11.348Z,13.37
2017-04-23T13:03:11.391Z,13.33
2017-04-23T13:04:11.378Z,13.35
2017-04-23T13:05:11.101Z,13.33
2017-04-23T13:06:11.182Z,13.33
2017-04-23T13:07:11.544Z,13.37
2017-04-23T13:08:11.432Z,13.31